Time;durP1;ratioP1;P1;durP2;ratioP2;P2;SDS_P1;SDS_P2;PMS_P1;PMS_P2;Temp;Humidity;BMP_temperature;BMP_pressure;BME280_temperature;BME280_humidity;BME280_pressure;Samples;Min_cycle;Max_cycle;Signal;HPM_P1;HPM_P2
2022/03/24 00:02:40;;;;;;;43.97;18.02;;;;;;;;;;6299553;22;20023;-88
2022/03/24 00:05:11;;;;;;;48.88;19.27;;;;;;;;;;6265376;22;20022;-88
2022/03/24 00:07:41;;;;;;;46.38;19.23;;;;;;;;;;6252612;22;20663;-88
2022/03/24 00:10:09;;;;;;;49.30;19.83;;;;;;;;;;6288258;22;20463;-88
2022/03/24 00:12:39;;;;;;;45.00;18.60;;;;;;;;;;6287589;22;20019;-88
2022/03/24 00:15:08;;;;;;;49.90;19.73;;;;;;;;;;6254012;22;20531;-88
2022/03/24 00:17:35;;;;;;;50.03;19.33;;;;;;;;;;6226066;22;20149;-88
2022/03/24 00:20:04;;;;;;;47.60;19.40;;;;;;;;;;6226932;22;20055;-89
2022/03/24 00:22:31;;;;;;;43.97;18.83;;;;;;;;;;6251343;22;20023;-88
2022/03/24 00:24:59;;;;;;;42.28;18.88;;;;;;;;;;6289392;22;20023;-88
2022/03/24 00:27:27;;;;;;;48.25;18.33;;;;;;;;;;6227098;22;20395;-88
2022/03/24 00:42:36;;;;;;;40.72;16.52;;;;;;;;;;6276615;22;20015;-88
2022/03/24 00:45:23;;;;;;;45.40;19.17;;;;;;;;;;6254190;22;20142;-88
2022/03/24 00:47:55;;;;;;;44.53;19.25;;;;;;;;;;6251221;22;20023;-88
2022/03/24 00:50:23;;;;;;;43.47;18.25;;;;;;;;;;6276888;22;20441;-88
2022/03/24 00:52:51;;;;;;;42.35;18.83;;;;;;;;;;6251503;22;20034;-88
2022/03/24 00:55:20;;;;;;;41.80;17.83;;;;;;;;;;6264248;22;20023;-88
2022/03/24 00:57:52;;;;;;;45.88;17.75;;;;;;;;;;6263483;22;20019;-89
2022/03/24 01:00:25;;;;;;;45.88;18.73;;;;;;;;;;6251045;22;20033;-88
2022/03/24 01:02:54;;;;;;;46.60;18.58;;;;;;;;;;6251572;22;20397;-89
2022/03/24 01:05:23;;;;;;;40.72;17.67;;;;;;;;;;6228071;22;20110;-89
2022/03/24 01:07:51;;;;;;;45.17;18.33;;;;;;;;;;6250790;22;20064;-89
2022/03/24 01:10:19;;;;;;;41.10;17.70;;;;;;;;;;6251824;22;20305;-89
2022/03/24 01:12:48;;;;;;;38.50;16.65;;;;;;;;;;6251399;22;20059;-89
2022/03/24 01:15:23;;;;;;;46.03;19.13;;;;;;;;;;6254878;22;20424;-88
2022/03/24 01:17:52;;;;;;;43.85;18.58;;;;;;;;;;6222152;22;20027;-88
2022/03/24 01:20:21;;;;;;;43.63;18.05;;;;;;;;;;6197237;22;20039;-88
2022/03/24 01:22:49;;;;;;;46.92;17.75;;;;;;;;;;6234058;22;20020;-89
2022/03/24 01:25:19;;;;;;;42.88;18.98;;;;;;;;;;6265011;22;20019;-89
2022/03/24 01:27:47;;;;;;;42.80;18.67;;;;;;;;;;6197179;22;20156;-89
2022/03/24 01:30:15;;;;;;;44.30;18.80;;;;;;;;;;6215032;22;20019;-89
2022/03/24 01:32:45;;;;;;;39.92;17.25;;;;;;;;;;6225120;22;20067;-89
2022/03/24 01:35:15;;;;;;;44.30;17.33;;;;;;;;;;6232261;22;20035;-89
2022/03/24 01:37:44;;;;;;;42.35;18.33;;;;;;;;;;6231408;22;20016;-89
2022/03/24 01:40:13;;;;;;;43.38;18.42;;;;;;;;;;6256402;22;20020;-89
2022/03/24 01:42:41;;;;;;;45.47;17.90;;;;;;;;;;6221012;22;20050;-89
2022/03/24 01:45:10;;;;;;;43.78;19.38;;;;;;;;;;6221463;22;20032;-89
2022/03/24 01:47:37;;;;;;;45.65;19.05;;;;;;;;;;6245774;22;20047;-89
2022/03/24 01:50:07;;;;;;;44.05;18.77;;;;;;;;;;6221508;22;20035;-89
2022/03/24 01:52:35;;;;;;;42.83;17.50;;;;;;;;;;6196279;22;20047;-89
2022/03/24 01:55:05;;;;;;;45.10;17.98;;;;;;;;;;6257645;22;20023;-89
2022/03/24 01:57:34;;;;;;;46.40;18.80;;;;;;;;;;6255727;22;20342;-89
2022/03/24 02:00:03;;;;;;;42.17;18.10;;;;;;;;;;6220417;22;20046;-89
2022/03/24 02:02:41;;;;;;;41.92;17.52;;;;;;;;;;6223301;22;20154;-89
2022/03/24 02:05:10;;;;;;;41.47;18.45;;;;;;;;;;6198707;22;20427;-89
2022/03/24 02:07:39;;;;;;;45.45;18.77;;;;;;;;;;6197638;22;20457;-89
2022/03/24 02:10:09;;;;;;;42.38;17.50;;;;;;;;;;6223616;22;20070;-89
2022/03/24 02:12:39;;;;;;;45.35;17.48;;;;;;;;;;6222827;22;20106;-89
2022/03/24 02:15:09;;;;;;;41.55;16.98;;;;;;;;;;6204005;22;20634;-89
2022/03/24 02:17:39;;;;;;;42.20;17.02;;;;;;;;;;6198497;22;20020;-89
2022/03/24 02:20:09;;;;;;;45.53;17.77;;;;;;;;;;6233981;22;20024;-89
2022/03/24 02:22:37;;;;;;;40.13;17.00;;;;;;;;;;6222670;22;20074;-89
2022/03/24 02:25:07;;;;;;;49.85;18.70;;;;;;;;;;6235228;22;20125;-89
2022/03/24 02:27:36;;;;;;;44.80;18.05;;;;;;;;;;6258209;22;20427;-89
2022/03/24 02:30:06;;;;;;;42.15;16.65;;;;;;;;;;6199248;22;20457;-89
2022/03/24 02:32:33;;;;;;;40.10;17.48;;;;;;;;;;6258609;22;20023;-89
2022/03/24 02:35:03;;;;;;;44.80;17.92;;;;;;;;;;6235197;22;20118;-89
2022/03/24 02:37:31;;;;;;;44.25;18.48;;;;;;;;;;6233372;22;20012;-89
2022/03/24 02:40:00;;;;;;;44.05;17.23;;;;;;;;;;6223094;22;20524;-89
2022/03/24 02:42:29;;;;;;;52.88;19.70;;;;;;;;;;6197796;22;20106;-89
2022/03/24 02:45:02;;;;;;;43.22;17.48;;;;;;;;;;6226413;22;20027;-89
2022/03/24 02:47:29;;;;;;;48.40;16.98;;;;;;;;;;6222366;22;20023;-89
2022/03/24 02:49:58;;;;;;;44.75;18.27;;;;;;;;;;6232994;22;20021;-89
2022/03/24 02:52:26;;;;;;;45.03;18.38;;;;;;;;;;6197079;22;20074;-89
2022/03/24 02:54:53;;;;;;;41.20;16.92;;;;;;;;;;6236905;22;20098;-89
2022/03/24 02:57:21;;;;;;;45.97;17.13;;;;;;;;;;6231848;22;20094;-89
2022/03/24 02:59:49;;;;;;;41.97;18.20;;;;;;;;;;6222613;22;20364;-89
2022/03/24 03:02:18;;;;;;;37.95;17.30;;;;;;;;;;6224224;22;20031;-89
2022/03/24 03:04:51;;;;;;;40.60;17.42;;;;;;;;;;6222714;22;20027;-89
2022/03/24 03:07:22;;;;;;;41.80;17.58;;;;;;;;;;6286830;22;20014;-89
2022/03/24 03:09:53;;;;;;;45.72;17.52;;;;;;;;;;6233826;22;20024;-89
2022/03/24 03:12:22;;;;;;;48.00;17.50;;;;;;;;;;6260820;22;20019;-89
2022/03/24 03:14:49;;;;;;;40.92;18.23;;;;;;;;;;6223989;22;20050;-89
2022/03/24 03:17:17;;;;;;;39.10;17.58;;;;;;;;;;6197910;22;20047;-89
2022/03/24 03:19:46;;;;;;;39.75;16.23;;;;;;;;;;6222807;22;20023;-89
2022/03/24 03:22:15;;;;;;;40.33;16.48;;;;;;;;;;6222651;22;20045;-89
2022/03/24 03:29:09;;;;;;;43.65;15.65;;;;;;;;;;6273125;22;20345;-89
2022/03/24 03:31:37;;;;;;;45.63;17.50;;;;;;;;;;6222164;22;20077;-89
2022/03/24 03:34:07;;;;;;;43.25;17.10;;;;;;;;;;6222525;22;20023;-89
2022/03/24 03:36:37;;;;;;;42.30;16.98;;;;;;;;;;6200395;22;20023;-89
2022/03/24 03:39:07;;;;;;;40.85;16.80;;;;;;;;;;6222401;22;20365;-89
2022/03/24 03:41:37;;;;;;;45.22;17.20;;;;;;;;;;6222233;22;20077;-89
2022/03/24 03:44:06;;;;;;;41.35;18.15;;;;;;;;;;6198640;22;20035;-89
2022/03/24 03:46:35;;;;;;;43.30;17.20;;;;;;;;;;6233341;22;20380;-89
2022/03/24 03:49:02;;;;;;;43.05;18.05;;;;;;;;;;6257982;22;20027;-89
2022/03/24 03:51:30;;;;;;;41.22;16.85;;;;;;;;;;6232071;22;20122;-89
2022/03/24 03:53:58;;;;;;;40.90;16.42;;;;;;;;;;6222815;22;20024;-89
2022/03/24 03:56:26;;;;;;;47.05;16.60;;;;;;;;;;6223913;22;20038;-89
2022/03/24 03:58:52;;;;;;;42.03;17.05;;;;;;;;;;6222298;22;20119;-89
2022/03/24 04:01:23;;;;;;;43.08;17.70;;;;;;;;;;6196954;22;20058;-89
2022/03/24 04:03:50;;;;;;;41.60;17.05;;;;;;;;;;6197867;22;20051;-89
2022/03/24 04:06:18;;;;;;;42.33;17.83;;;;;;;;;;6285276;22;20027;-89
2022/03/24 04:08:46;;;;;;;44.05;17.05;;;;;;;;;;6257706;22;20015;-89
2022/03/24 04:11:15;;;;;;;43.28;16.42;;;;;;;;;;6246780;22;20024;-89
2022/03/24 04:13:43;;;;;;;43.22;17.38;;;;;;;;;;6257296;22;20292;-89
2022/03/24 04:16:13;;;;;;;42.53;17.25;;;;;;;;;;6223809;22;20038;-89
2022/03/24 04:18:48;;;;;;;43.17;18.17;;;;;;;;;;6221848;22;20019;-89
2022/03/24 04:21:17;;;;;;;40.15;16.08;;;;;;;;;;6221778;22;20028;-89
2022/03/24 04:23:47;;;;;;;42.47;16.55;;;;;;;;;;6258205;22;20019;-89
2022/03/24 04:26:14;;;;;;;40.78;16.10;;;;;;;;;;6259735;22;20395;-89
2022/03/24 04:28:43;;;;;;;40.85;16.50;;;;;;;;;;6221812;22;20099;-89
2022/03/24 04:31:12;;;;;;;41.65;16.60;;;;;;;;;;6257289;22;20039;-89
2022/03/24 04:33:40;;;;;;;38.53;16.63;;;;;;;;;;6257943;22;20026;-88
2022/03/24 04:36:10;;;;;;;38.15;16.60;;;;;;;;;;6258253;22;20019;-89
2022/03/24 04:38:39;;;;;;;40.75;16.38;;;;;;;;;;6233189;22;20019;-89
2022/03/24 04:41:06;;;;;;;39.20;15.98;;;;;;;;;;6256929;22;20030;-89
2022/03/24 04:43:35;;;;;;;38.95;16.95;;;;;;;;;;6221751;22;20678;-89
2022/03/24 04:46:02;;;;;;;43.20;17.92;;;;;;;;;;6258647;22;20028;-89
2022/03/24 04:48:35;;;;;;;47.00;17.45;;;;;;;;;;6222361;22;20359;-89
2022/03/24 04:51:06;;;;;;;36.38;15.20;;;;;;;;;;6256886;22;20025;-89
2022/03/24 04:53:35;;;;;;;41.90;17.08;;;;;;;;;;6197758;22;20034;-89
2022/03/24 04:56:03;;;;;;;41.72;15.43;;;;;;;;;;6224967;22;20032;-89
2022/03/24 04:58:31;;;;;;;41.90;16.15;;;;;;;;;;6284254;22;20069;-89
2022/03/24 05:00:59;;;;;;;37.92;16.52;;;;;;;;;;6246058;22;20081;-89
2022/03/24 05:03:26;;;;;;;39.35;15.15;;;;;;;;;;6222645;22;20110;-89
2022/03/24 05:05:54;;;;;;;41.28;17.33;;;;;;;;;;6224131;22;20081;-89
2022/03/24 05:08:22;;;;;;;36.75;16.00;;;;;;;;;;6256932;22;20409;-89
2022/03/24 05:10:50;;;;;;;46.15;17.58;;;;;;;;;;6221543;22;20031;-89
2022/03/24 05:13:18;;;;;;;49.25;16.17;;;;;;;;;;6257333;22;20039;-89
2022/03/24 05:15:46;;;;;;;45.00;18.75;;;;;;;;;;6226106;22;20098;-89
2022/03/24 05:18:14;;;;;;;38.33;15.95;;;;;;;;;;6224464;22;20083;-88
2022/03/24 05:20:43;;;;;;;38.38;16.85;;;;;;;;;;6221517;22;20027;-89
2022/03/24 05:23:10;;;;;;;42.53;16.98;;;;;;;;;;6221000;22;20114;-89
2022/03/24 05:25:38;;;;;;;45.08;17.60;;;;;;;;;;6225339;22;20019;-89
2022/03/24 05:28:07;;;;;;;42.08;15.88;;;;;;;;;;6257524;22;20020;-89
2022/03/24 05:30:34;;;;;;;36.38;15.70;;;;;;;;;;6221234;22;20030;-89
2022/03/24 05:33:03;;;;;;;37.83;15.40;;;;;;;;;;6221962;22;20032;-89
2022/03/24 05:35:35;;;;;;;42.83;16.75;;;;;;;;;;6222904;22;20034;-88
2022/03/24 05:38:03;;;;;;;44.78;19.23;;;;;;;;;;6195564;22;20028;-89
2022/03/24 05:40:31;;;;;;;44.83;18.55;;;;;;;;;;6221753;22;20115;-89
2022/03/24 05:42:58;;;;;;;42.13;16.77;;;;;;;;;;6233657;22;20094;-89
2022/03/24 05:45:26;;;;;;;40.42;16.90;;;;;;;;;;6287618;22;20047;-89
2022/03/24 05:47:54;;;;;;;42.00;17.42;;;;;;;;;;6268076;22;20012;-89
2022/03/24 05:50:34;;;;;;;42.20;16.40;;;;;;;;;;6251491;22;20054;-89
2022/03/24 05:53:12;;;;;;;40.67;16.05;;;;;;;;;;6243547;22;20027;-88
2022/03/24 05:55:41;;;;;;;40.95;16.83;;;;;;;;;;6200263;22;20023;-89
2022/03/24 05:58:08;;;;;;;44.03;17.42;;;;;;;;;;6223754;22;20334;-89
2022/03/24 06:00:38;;;;;;;43.53;17.17;;;;;;;;;;6222784;22;20024;-89
2022/03/24 06:03:06;;;;;;;41.60;18.13;;;;;;;;;;6234414;22;20039;-89
2022/03/24 06:05:40;;;;;;;41.35;17.67;;;;;;;;;;6225570;22;20023;-89
2022/03/24 06:08:09;;;;;;;52.08;17.90;;;;;;;;;;6223896;22;20079;-88
2022/03/24 06:10:36;;;;;;;44.30;18.02;;;;;;;;;;6233649;22;20754;-89
2022/03/24 06:13:06;;;;;;;48.55;17.45;;;;;;;;;;6224347;22;20027;-89
2022/03/24 06:15:34;;;;;;;38.80;16.98;;;;;;;;;;6260543;22;20393;-89
2022/03/24 06:18:02;;;;;;;41.88;17.27;;;;;;;;;;6233911;22;20016;-89
2022/03/24 06:20:30;;;;;;;40.85;17.13;;;;;;;;;;6223417;22;20024;-89
2022/03/24 06:22:58;;;;;;;42.47;18.10;;;;;;;;;;6223150;22;20030;-89
2022/03/24 06:25:26;;;;;;;40.30;17.48;;;;;;;;;;6262756;22;20097;-89
2022/03/24 06:27:55;;;;;;;46.30;18.48;;;;;;;;;;6196817;22;20103;-89
2022/03/24 06:30:23;;;;;;;42.95;17.70;;;;;;;;;;6222296;22;20054;-89
2022/03/24 06:32:52;;;;;;;42.08;18.23;;;;;;;;;;6198867;22;20027;-88
2022/03/24 06:35:21;;;;;;;43.28;18.33;;;;;;;;;;6261405;22;20015;-88
2022/03/24 06:37:54;;;;;;;44.22;17.63;;;;;;;;;;6198918;22;20024;-89
2022/03/24 06:40:23;;;;;;;42.35;16.60;;;;;;;;;;6234205;22;20318;-89
2022/03/24 06:42:54;;;;;;;41.80;18.25;;;;;;;;;;6235018;22;20015;-89
2022/03/24 06:45:22;;;;;;;41.40;18.17;;;;;;;;;;6226275;22;20051;-89
2022/03/24 06:47:50;;;;;;;47.05;18.42;;;;;;;;;;6199497;22;20024;-89
2022/03/24 06:50:18;;;;;;;43.95;17.13;;;;;;;;;;6259809;22;20027;-88
2022/03/24 06:52:46;;;;;;;52.97;19.00;;;;;;;;;;6233636;22;20046;-89
2022/03/24 06:55:14;;;;;;;53.25;21.08;;;;;;;;;;6226197;22;20420;-88
2022/03/24 06:57:43;;;;;;;49.40;19.67;;;;;;;;;;6223578;22;20024;-88
2022/03/24 07:00:12;;;;;;;52.55;21.42;;;;;;;;;;6198527;22;20032;-88
2022/03/24 07:02:41;;;;;;;58.50;20.27;;;;;;;;;;6223384;22;20023;-88
2022/03/24 07:05:08;;;;;;;48.20;20.73;;;;;;;;;;6226545;22;20016;-88
2022/03/24 07:07:36;;;;;;;52.72;21.00;;;;;;;;;;6198767;22;20020;-89
2022/03/24 07:10:05;;;;;;;52.15;20.80;;;;;;;;;;6223974;22;20023;-89
2022/03/24 07:12:33;;;;;;;47.33;20.67;;;;;;;;;;6234130;22;20016;-88
2022/03/24 07:15:02;;;;;;;47.08;20.50;;;;;;;;;;6235907;22;20016;-88
2022/03/24 07:17:30;;;;;;;61.20;22.23;;;;;;;;;;6199602;22;20028;-88
2022/03/24 07:19:58;;;;;;;55.72;22.35;;;;;;;;;;6224142;22;20027;-88
2022/03/24 07:22:31;;;;;;;52.90;21.95;;;;;;;;;;6223489;22;20031;-88
2022/03/24 07:24:59;;;;;;;55.38;21.48;;;;;;;;;;6202017;22;20069;-88
2022/03/24 07:27:26;;;;;;;48.47;19.75;;;;;;;;;;6233586;22;20706;-89
2022/03/24 07:30:02;;;;;;;52.83;20.92;;;;;;;;;;6224527;22;20023;-88
2022/03/24 07:32:31;;;;;;;45.90;18.70;;;;;;;;;;6219908;22;20031;-89
2022/03/24 07:34:59;;;;;;;47.65;19.73;;;;;;;;;;6226312;22;20030;-89
2022/03/24 07:37:28;;;;;;;45.47;19.10;;;;;;;;;;6232697;22;20015;-89
2022/03/24 07:39:57;;;;;;;49.17;20.02;;;;;;;;;;6198748;22;20034;-88
2022/03/24 07:42:24;;;;;;;45.97;17.98;;;;;;;;;;6221717;22;20085;-89
2022/03/24 07:44:52;;;;;;;42.95;19.92;;;;;;;;;;6226664;22;20031;-88
2022/03/24 07:48:06;;;;;;;49.05;21.10;;;;;;;;;;6259850;22;20016;-88
2022/03/24 07:50:36;;;;;;;46.83;20.90;;;;;;;;;;6258715;22;20372;-88
2022/03/24 07:53:13;;;;;;;46.47;20.50;;;;;;;;;;6222729;22;20105;-88
2022/03/24 07:55:43;;;;;;;53.78;20.98;;;;;;;;;;6199435;22;20032;-89
2022/03/24 07:58:11;;;;;;;51.45;20.08;;;;;;;;;;6222339;22;20051;-89
2022/03/24 08:00:39;;;;;;;46.08;19.60;;;;;;;;;;6222195;22;20364;-89
2022/03/24 08:03:22;;;;;;;42.10;18.88;;;;;;;;;;6222405;22;20098;-89
2022/03/24 08:05:50;;;;;;;45.28;19.50;;;;;;;;;;6211424;22;20003;-89
2022/03/24 08:08:20;;;;;;;42.15;18.00;;;;;;;;;;6254489;22;20075;-89
2022/03/24 08:10:50;;;;;;;46.60;20.40;;;;;;;;;;6254433;22;20004;-89
2022/03/24 08:13:32;;;;;;;40.60;17.75;;;;;;;;;;6241043;22;20027;-89
2022/03/24 08:16:00;;;;;;;49.42;19.60;;;;;;;;;;6258946;22;20084;-89
2022/03/24 08:18:28;;;;;;;41.25;18.45;;;;;;;;;;6258113;22;20096;-88
2022/03/24 08:20:59;;;;;;;42.13;19.13;;;;;;;;;;6197843;22;20027;-89
2022/03/24 08:23:26;;;;;;;45.95;19.42;;;;;;;;;;6221971;22;20027;-88
2022/03/24 08:25:54;;;;;;;42.70;19.65;;;;;;;;;;6200220;22;20032;-89
2022/03/24 08:28:23;;;;;;;44.80;19.85;;;;;;;;;;6257651;22;20087;-89
2022/03/24 08:30:52;;;;;;;47.67;20.08;;;;;;;;;;6222562;22;20034;-89
2022/03/24 08:33:20;;;;;;;46.13;19.55;;;;;;;;;;6257285;22;20019;-89
2022/03/24 08:35:48;;;;;;;41.17;18.30;;;;;;;;;;6199114;22;20057;-89
2022/03/24 08:38:16;;;;;;;41.15;18.58;;;;;;;;;;6222157;22;20031;-89
2022/03/24 08:40:44;;;;;;;40.38;18.98;;;;;;;;;;6222376;22;20349;-89
2022/03/24 08:43:13;;;;;;;43.33;18.70;;;;;;;;;;6197309;22;20020;-89
2022/03/24 08:45:50;;;;;;;44.83;20.13;;;;;;;;;;6224741;22;20483;-89
2022/03/24 08:48:19;;;;;;;40.13;18.63;;;;;;;;;;6222367;22;20105;-89
2022/03/24 08:50:46;;;;;;;43.83;19.00;;;;;;;;;;6257210;22;20016;-89
2022/03/24 08:53:15;;;;;;;40.55;19.33;;;;;;;;;;6222390;22;20737;-89
2022/03/24 08:55:49;;;;;;;40.75;19.05;;;;;;;;;;6200367;22;20396;-89
2022/03/24 08:58:18;;;;;;;43.72;20.98;;;;;;;;;;6258043;22;20121;-89
2022/03/24 09:00:46;;;;;;;44.17;18.23;;;;;;;;;;6232971;22;20019;-89
2022/03/24 09:03:20;;;;;;;45.67;18.92;;;;;;;;;;6221801;22;20024;-89
2022/03/24 09:05:48;;;;;;;42.10;19.10;;;;;;;;;;6234933;22;20020;-89
2022/03/24 09:08:16;;;;;;;41.90;18.95;;;;;;;;;;6220997;22;20113;-89
2022/03/24 09:10:47;;;;;;;44.80;19.55;;;;;;;;;;6196836;22;20024;-89
2022/03/24 09:13:15;;;;;;;41.85;18.55;;;;;;;;;;6256286;22;20015;-89
2022/03/24 09:15:45;;;;;;;44.95;19.33;;;;;;;;;;6224040;22;20081;-89
2022/03/24 09:18:13;;;;;;;41.25;19.30;;;;;;;;;;6197382;22;20020;-89
2022/03/24 09:20:41;;;;;;;41.58;18.65;;;;;;;;;;6196872;22;20368;-89
2022/03/24 09:23:10;;;;;;;45.35;20.45;;;;;;;;;;6222159;22;20042;-89
2022/03/24 09:25:47;;;;;;;43.28;19.52;;;;;;;;;;6222995;22;20084;-89
2022/03/24 09:28:15;;;;;;;42.22;19.98;;;;;;;;;;6246738;22;20023;-89
2022/03/24 09:30:51;;;;;;;40.30;19.10;;;;;;;;;;6233649;22;20020;-89
2022/03/24 09:33:19;;;;;;;45.22;19.67;;;;;;;;;;6257064;22;20093;-90
2022/03/24 09:35:47;;;;;;;39.72;18.45;;;;;;;;;;6236308;22;20602;-89
2022/03/24 09:38:14;;;;;;;42.90;19.65;;;;;;;;;;6221497;22;20098;-89
2022/03/24 09:40:45;;;;;;;38.63;18.80;;;;;;;;;;6257513;22;20019;-89
2022/03/24 09:43:18;;;;;;;46.67;20.38;;;;;;;;;;6198822;22;20053;-89
2022/03/24 09:45:47;;;;;;;45.25;20.90;;;;;;;;;;6259370;22;20015;-89
2022/03/24 09:48:15;;;;;;;42.85;19.25;;;;;;;;;;6221456;22;20449;-90
2022/03/24 09:50:46;;;;;;;45.22;20.95;;;;;;;;;;6222557;22;20045;-90
2022/03/24 09:53:17;;;;;;;43.10;19.48;;;;;;;;;;6257180;22;20020;-89
2022/03/24 09:55:50;;;;;;;43.92;19.63;;;;;;;;;;6251427;22;20024;-89
2022/03/24 09:58:24;;;;;;;46.70;20.13;;;;;;;;;;6221519;22;20082;-90
2022/03/24 10:01:18;;;;;;;45.40;20.13;;;;;;;;;;6227384;22;20424;-89
2022/03/24 10:04:20;;;;;;;44.28;20.17;;;;;;;;;;6216366;23;20024;-89
2022/03/24 10:07:02;;;;;;;43.08;20.65;;;;;;;;;;6225376;23;20083;-89
2022/03/24 10:09:46;;;;;;;47.72;20.48;;;;;;;;;;6166573;23;20103;-89
2022/03/24 10:12:18;;;;;;;49.03;23.20;;;;;;;;;;6190166;23;20028;-89
2022/03/24 10:15:10;;;;;;;53.20;23.42;;;;;;;;;;6190912;23;20027;-89
2022/03/24 10:17:48;;;;;;;50.70;20.88;;;;;;;;;;6219061;23;20550;-89
2022/03/24 10:20:17;;;;;;;49.28;22.23;;;;;;;;;;6136787;23;20029;-89
2022/03/24 10:22:59;;;;;;;49.20;21.35;;;;;;;;;;6194263;23;20075;-89
2022/03/24 10:25:32;;;;;;;47.92;21.60;;;;;;;;;;6138494;23;20755;-90
2022/03/24 10:28:07;;;;;;;47.38;22.25;;;;;;;;;;6137405;23;20080;-90
2022/03/24 10:30:59;;;;;;;41.40;20.88;;;;;;;;;;6211914;23;20367;-90
2022/03/24 10:33:45;;;;;;;41.70;20.48;;;;;;;;;;6186731;23;20081;-89
2022/03/24 10:36:18;;;;;;;44.45;21.13;;;;;;;;;;6198956;23;20537;-89
2022/03/24 10:38:51;;;;;;;44.33;19.35;;;;;;;;;;6187047;23;20020;-89
2022/03/24 10:41:26;;;;;;;42.95;20.73;;;;;;;;;;6211638;23;20025;-89
2022/03/24 10:43:59;;;;;;;48.00;21.65;;;;;;;;;;6140511;23;20116;-89
2022/03/24 10:46:33;;;;;;;41.88;19.60;;;;;;;;;;6189711;23;20110;-89
2022/03/24 10:50:25;;;;;;;45.65;21.17;;;;;;;;;;6181307;23;20021;-89
2022/03/24 10:52:53;;;;;;;43.88;21.00;;;;;;;;;;6158094;23;20324;-89
2022/03/24 10:55:35;;;;;;;42.38;19.63;;;;;;;;;;6191902;23;20051;-89
2022/03/24 10:58:07;;;;;;;41.58;19.27;;;;;;;;;;6161772;23;20028;-89
2022/03/24 11:00:36;;;;;;;40.72;17.13;;;;;;;;;;6137264;23;20108;-89
2022/03/24 11:03:05;;;;;;;36.45;17.88;;;;;;;;;;6196870;23;20099;-89
2022/03/24 11:05:32;;;;;;;37.97;18.60;;;;;;;;;;6140332;23;20033;-90
2022/03/24 11:08:00;;;;;;;41.75;19.23;;;;;;;;;;6161630;23;20028;-89
2022/03/24 11:10:56;;;;;;;42.70;19.83;;;;;;;;;;6197379;23;20077;-92
2022/03/24 11:13:40;;;;;;;41.33;18.95;;;;;;;;;;6176990;22;20028;-89
2022/03/24 11:16:10;;;;;;;43.72;19.10;;;;;;;;;;6225112;22;20062;-89
2022/03/24 11:18:40;;;;;;;33.75;16.75;;;;;;;;;;6259504;22;20081;-89
2022/03/24 11:21:35;;;;;;;43.60;19.35;;;;;;;;;;6197555;22;20023;-90
2022/03/24 11:24:05;;;;;;;36.83;17.85;;;;;;;;;;6214803;22;20028;-90
2022/03/24 11:26:35;;;;;;;43.92;19.25;;;;;;;;;;6199739;22;20107;-90
2022/03/24 11:29:12;;;;;;;37.95;17.52;;;;;;;;;;6247825;22;20051;-89
2022/03/24 11:31:44;;;;;;;42.83;19.92;;;;;;;;;;6247001;22;20102;-90
2022/03/24 11:34:13;;;;;;;39.15;18.27;;;;;;;;;;6198808;22;20062;-89
2022/03/24 11:36:41;;;;;;;40.83;18.83;;;;;;;;;;6222175;22;20020;-89
2022/03/24 11:39:11;;;;;;;38.47;17.65;;;;;;;;;;6197744;22;20539;-89
2022/03/24 11:41:43;;;;;;;41.67;18.17;;;;;;;;;;6247898;22;20217;-89
2022/03/24 11:44:17;;;;;;;44.13;18.77;;;;;;;;;;6234891;22;20066;-89
2022/03/24 11:46:52;;;;;;;41.58;18.08;;;;;;;;;;6257900;22;20023;-89
2022/03/24 11:49:25;;;;;;;38.13;18.85;;;;;;;;;;6258959;22;20008;-90
2022/03/24 11:51:58;;;;;;;40.28;18.45;;;;;;;;;;6232274;22;20452;-90
2022/03/24 11:54:34;;;;;;;42.47;21.00;;;;;;;;;;6248916;22;20075;-90
2022/03/24 11:57:21;;;;;;;43.70;19.15;;;;;;;;;;6222638;22;20078;-90
2022/03/24 12:00:11;;;;;;;40.72;18.65;;;;;;;;;;6285341;22;20070;-90
2022/03/24 12:02:45;;;;;;;39.38;18.02;;;;;;;;;;6257503;22;20019;-90
2022/03/24 12:05:13;;;;;;;40.78;19.73;;;;;;;;;;6250652;22;20111;-90
2022/03/24 12:07:41;;;;;;;37.97;18.10;;;;;;;;;;6263687;22;20012;-90
2022/03/24 12:10:32;;;;;;;39.10;18.42;;;;;;;;;;6098740;23;20017;-90
2022/03/24 12:13:21;;;;;;;37.50;17.90;;;;;;;;;;6109459;23;20006;-90
2022/03/24 12:16:13;;;;;;;43.90;18.77;;;;;;;;;;6023583;23;20034;-90
2022/03/24 12:18:42;;;;;;;37.17;18.60;;;;;;;;;;6078348;23;20040;-90
2022/03/24 12:21:23;;;;;;;41.75;18.38;;;;;;;;;;6067313;23;20536;-90
2022/03/24 12:24:08;;;;;;;40.30;18.88;;;;;;;;;;6045360;23;20468;-90
2022/03/24 12:26:50;;;;;;;43.58;19.77;;;;;;;;;;6080159;23;20022;-90
2022/03/24 12:29:21;;;;;;;42.17;19.83;;;;;;;;;;6045158;23;20102;-89
2022/03/24 12:32:09;;;;;;;36.22;18.25;;;;;;;;;;6068694;23;20026;-90
2022/03/24 12:34:39;;;;;;;41.35;19.55;;;;;;;;;;6021390;23;20034;-90
2022/03/24 12:37:25;;;;;;;47.53;20.27;;;;;;;;;;6044977;23;20030;-90
2022/03/24 12:40:06;;;;;;;41.55;19.17;;;;;;;;;;6021909;23;20128;-89
2022/03/24 12:42:53;;;;;;;41.25;18.67;;;;;;;;;;6163295;23;20020;-89
2022/03/24 12:45:27;;;;;;;38.47;18.08;;;;;;;;;;6163751;23;20028;-90
2022/03/24 12:48:58;;;;;;;44.78;19.00;;;;;;;;;;6178838;23;20068;-90
2022/03/24 12:51:48;;;;;;;38.40;18.30;;;;;;;;;;6133871;23;20025;-90
2022/03/24 12:54:19;;;;;;;40.90;18.80;;;;;;;;;;6135043;23;20169;-90
2022/03/24 12:56:46;;;;;;;42.33;18.70;;;;;;;;;;6108578;23;20029;-90
2022/03/24 12:59:24;;;;;;;41.90;18.90;;;;;;;;;;6131779;23;20091;-90
2022/03/24 13:03:21;;;;;;;39.00;18.05;;;;;;;;;;6135774;23;20017;-89
2022/03/24 13:06:40;;;;;;;44.75;19.08;;;;;;;;;;6159539;23;20850;-89
2022/03/24 13:12:49;;;;;;;36.97;15.98;;;;;;;;;;6152585;23;20024;-90
2022/03/24 13:19:12;;;;;;;33.13;15.57;;;;;;;;;;6238721;23;20070;-78
2022/03/24 13:21:40;;;;;;;39.00;17.63;;;;;;;;;;6246745;23;20099;-80
2022/03/24 13:24:18;;;;;;;39.03;16.75;;;;;;;;;;6255138;23;20078;-80
2022/03/24 13:26:58;;;;;;;37.55;17.67;;;;;;;;;;6217858;23;20043;-78
2022/03/24 13:29:56;;;;;;;33.92;16.50;;;;;;;;;;6165839;23;20046;-80
2022/03/24 13:32:27;;;;;;;37.08;16.27;;;;;;;;;;6189450;23;20056;-78
2022/03/24 13:35:00;;;;;;;39.50;16.45;;;;;;;;;;6152380;23;20032;-80
2022/03/24 13:37:51;;;;;;;35.65;16.60;;;;;;;;;;6186913;23;20103;-80
2022/03/24 13:40:25;;;;;;;34.00;16.63;;;;;;;;;;6152401;23;20033;-77
2022/03/24 13:42:55;;;;;;;36.53;16.55;;;;;;;;;;6153397;23;20025;-80
2022/03/24 13:45:22;;;;;;;44.30;18.25;;;;;;;;;;6163344;23;20108;-77
2022/03/24 13:47:56;;;;;;;35.20;17.23;;;;;;;;;;6128976;23;20052;-78
2022/03/24 13:50:29;;;;;;;33.58;16.05;;;;;;;;;;6188091;23;20033;-77
2022/03/24 13:52:58;;;;;;;35.75;15.77;;;;;;;;;;6185469;23;20091;-79
2022/03/24 13:55:30;;;;;;;35.15;16.38;;;;;;;;;;6129290;23;20099;-77
2022/03/24 13:58:08;;;;;;;31.42;15.43;;;;;;;;;;6131236;23;20053;-78
2022/03/24 14:00:39;;;;;;;36.45;14.95;;;;;;;;;;6187177;23;20024;-80
2022/03/24 14:03:20;;;;;;;29.67;16.33;;;;;;;;;;6188112;23;20083;-76
2022/03/24 14:06:00;;;;;;;34.42;17.13;;;;;;;;;;6186709;23;20136;-79
2022/03/24 14:08:31;;;;;;;35.80;17.17;;;;;;;;;;6220764;23;20111;-78
2022/03/24 14:11:20;;;;;;;33.67;15.85;;;;;;;;;;6195251;23;20024;-80
2022/03/24 14:13:54;;;;;;;39.38;17.17;;;;;;;;;;6254331;23;20031;-77
2022/03/24 14:16:39;;;;;;;35.88;17.08;;;;;;;;;;6205147;23;20044;-78
2022/03/24 14:19:18;;;;;;;29.50;14.68;;;;;;;;;;6245609;23;20028;-79
2022/03/24 14:21:59;;;;;;;36.63;17.35;;;;;;;;;;6228903;23;20047;-80
2022/03/24 14:24:46;;;;;;;33.92;18.17;;;;;;;;;;6254317;23;20024;-80
2022/03/24 14:27:24;;;;;;;40.40;17.70;;;;;;;;;;6218761;23;20082;-76
2022/03/24 14:30:02;;;;;;;34.10;17.33;;;;;;;;;;6228703;23;20027;-76
2022/03/24 14:32:38;;;;;;;35.00;17.08;;;;;;;;;;6191157;23;20116;-80
2022/03/24 14:35:19;;;;;;;37.30;17.73;;;;;;;;;;6169162;23;20087;-76
2022/03/24 14:37:55;;;;;;;35.70;17.08;;;;;;;;;;6204350;23;20024;-76
2022/03/24 14:40:31;;;;;;;36.53;18.05;;;;;;;;;;6256321;23;20038;-75
2022/03/24 14:43:08;;;;;;;36.05;15.70;;;;;;;;;;6235121;23;20020;-80
2022/03/24 14:45:39;;;;;;;38.72;17.70;;;;;;;;;;6206553;23;20178;-83
2022/03/24 14:48:08;;;;;;;38.15;17.05;;;;;;;;;;6264996;23;20171;-84
2022/03/24 14:50:39;;;;;;;35.42;16.63;;;;;;;;;;6198596;23;20075;-83
2022/03/24 14:53:11;;;;;;;31.35;15.63;;;;;;;;;;6206216;23;20016;-82
2022/03/24 14:55:40;;;;;;;37.35;15.52;;;;;;;;;;6170922;23;20115;-79
2022/03/24 14:58:10;;;;;;;31.20;14.82;;;;;;;;;;6193856;23;20769;-78
2022/03/24 15:00:39;;;;;;;35.20;17.73;;;;;;;;;;6192737;23;20059;-83
2022/03/24 15:03:06;;;;;;;33.90;17.50;;;;;;;;;;6203626;23;20046;-83
2022/03/24 15:05:37;;;;;;;36.83;16.60;;;;;;;;;;6192817;23;20363;-78
2022/03/24 15:08:05;;;;;;;32.65;15.82;;;;;;;;;;6202979;23;20027;-78
2022/03/24 15:10:35;;;;;;;33.78;16.02;;;;;;;;;;6229810;23;20095;-82
2022/03/24 15:13:05;;;;;;;34.78;15.57;;;;;;;;;;6167662;23;20023;-82